sensor_id;sensor_type;location;lat;lon;timestamp;pressure;altitude;pressure_sealevel;temperature;humidity
66681;BME280;53575;51.366;12.350;2022-10-16T00:02:13;99954.31;;;15.35;100.00
66681;BME280;53575;51.366;12.350;2022-10-16T00:04:38;99950.69;;;15.40;100.00
66681;BME280;53575;51.366;12.350;2022-10-16T00:07:04;99947.72;;;15.22;100.00
66681;BME280;53575;51.366;12.350;2022-10-16T00:09:29;99943.22;;;15.26;100.00
66681;BME280;53575;51.366;12.350;2022-10-16T00:11:54;99958.13;;;15.27;100.00
66681;BME280;53575;51.366;12.350;2022-10-16T00:14:20;99955.75;;;15.18;100.00
66681;BME280;53575;51.366;12.350;2022-10-16T00:16:45;99949.78;;;15.13;100.00
66681;BME280;53575;51.366;12.350;2022-10-16T00:19:11;99955.13;;;15.09;100.00
66681;BME280;53575;51.366;12.350;2022-10-16T00:21:37;99964.09;;;15.04;100.00
66681;BME280;53575;51.366;12.350;2022-10-16T00:24:06;99966.50;;;15.10;100.00
66681;BME280;53575;51.366;12.350;2022-10-16T00:26:33;99975.31;;;15.09;100.00
66681;BME280;53575;51.366;12.350;2022-10-16T00:28:59;99976.19;;;15.09;100.00
66681;BME280;53575;51.366;12.350;2022-10-16T00:31:24;99974.94;;;15.21;100.00
66681;BME280;53575;51.366;12.350;2022-10-16T00:33:50;99964.28;;;15.26;100.00
66681;BME280;53575;51.366;12.350;2022-10-16T00:36:18;99977.78;;;15.43;100.00
66681;BME280;53575;51.366;12.350;2022-10-16T00:38:44;99972.75;;;15.35;100.00
66681;BME280;53575;51.366;12.350;2022-10-16T00:41:13;99986.59;;;15.42;100.00
66681;BME280;53575;51.366;12.350;2022-10-16T00:43:47;99984.97;;;15.38;100.00
66681;BME280;53575;51.366;12.350;2022-10-16T00:49:06;99982.91;;;15.48;100.00
66681;BME280;53575;51.366;12.350;2022-10-16T00:51:43;99985.06;;;15.35;100.00
66681;BME280;53575;51.366;12.350;2022-10-16T00:54:13;99993.59;;;15.43;100.00
66681;BME280;53575;51.366;12.350;2022-10-16T00:56:40;99998.09;;;15.40;100.00
66681;BME280;53575;51.366;12.350;2022-10-16T00:59:11;99985.69;;;15.43;100.00
66681;BME280;53575;51.366;12.350;2022-10-16T01:01:39;99989.88;;;15.49;100.00
66681;BME280;53575;51.366;12.350;2022-10-16T01:04:04;99980.59;;;15.37;100.00
66681;BME280;53575;51.366;12.350;2022-10-16T01:06:45;99982.22;;;15.41;100.00
66681;BME280;53575;51.366;12.350;2022-10-16T01:09:17;99978.22;;;15.57;100.00
66681;BME280;53575;51.366;12.350;2022-10-16T01:14:55;99970.81;;;15.42;100.00
66681;BME280;53575;51.366;12.350;2022-10-16T01:17:28;99972.34;;;15.49;100.00
66681;BME280;53575;51.366;12.350;2022-10-16T01:25:40;99984.97;;;15.38;100.00
66681;BME280;53575;51.366;12.350;2022-10-16T01:28:11;99981.50;;;15.36;100.00
66681;BME280;53575;51.366;12.350;2022-10-16T01:30:40;99984.31;;;15.30;100.00
66681;BME280;53575;51.366;12.350;2022-10-16T01:33:36;99993.81;;;15.35;100.00
66681;BME280;53575;51.366;12.350;2022-10-16T01:36:13;100000.88;;;15.33;100.00
66681;BME280;53575;51.366;12.350;2022-10-16T01:38:43;100008.13;;;15.27;100.00
66681;BME280;53575;51.366;12.350;2022-10-16T01:41:21;100009.16;;;15.21;100.00
66681;BME280;53575;51.366;12.350;2022-10-16T01:43:59;100008.06;;;15.28;100.00
66681;BME280;53575;51.366;12.350;2022-10-16T01:46:28;100013.81;;;15.13;100.00
66681;BME280;53575;51.366;12.350;2022-10-16T01:48:55;100017.50;;;15.07;100.00
66681;BME280;53575;51.366;12.350;2022-10-16T01:51:21;100009.91;;;14.97;100.00
66681;BME280;53575;51.366;12.350;2022-10-16T01:53:52;100018.38;;;14.77;100.00
66681;BME280;53575;51.366;12.350;2022-10-16T01:56:18;100017.88;;;14.62;100.00
66681;BME280;53575;51.366;12.350;2022-10-16T01:58:49;100017.34;;;14.50;100.00
66681;BME280;53575;51.366;12.350;2022-10-16T02:01:18;100017.34;;;14.50;100.00
66681;BME280;53575;51.366;12.350;2022-10-16T02:03:46;100006.97;;;14.44;100.00
66681;BME280;53575;51.366;12.350;2022-10-16T02:06:13;100003.41;;;14.45;100.00
66681;BME280;53575;51.366;12.350;2022-10-16T02:08:39;99999.09;;;14.42;100.00
66681;BME280;53575;51.366;12.350;2022-10-16T02:11:06;99999.09;;;14.44;100.00
66681;BME280;53575;51.366;12.350;2022-10-16T02:13:38;100003.56;;;14.40;100.00
66681;BME280;53575;51.366;12.350;2022-10-16T02:16:04;99998.16;;;14.46;100.00
66681;BME280;53575;51.366;12.350;2022-10-16T02:18:30;99997.38;;;14.41;100.00
66681;BME280;53575;51.366;12.350;2022-10-16T02:23:52;100013.28;;;14.36;100.00
66681;BME280;53575;51.366;12.350;2022-10-16T02:26:28;100016.84;;;14.34;100.00
66681;BME280;53575;51.366;12.350;2022-10-16T02:29:00;100015.19;;;14.31;100.00
66681;BME280;53575;51.366;12.350;2022-10-16T02:31:32;100022.22;;;14.29;100.00
66681;BME280;53575;51.366;12.350;2022-10-16T02:34:01;100032.00;;;14.24;100.00
66681;BME280;53575;51.366;12.350;2022-10-16T02:36:30;100030.38;;;14.20;100.00
66681;BME280;53575;51.366;12.350;2022-10-16T02:38:57;100035.56;;;14.22;100.00
66681;BME280;53575;51.366;12.350;2022-10-16T02:41:26;100031.22;;;14.21;100.00
66681;BME280;53575;51.366;12.350;2022-10-16T02:43:51;100030.31;;;14.22;100.00
66681;BME280;53575;51.366;12.350;2022-10-16T02:46:18;100031.25;;;14.19;100.00
66681;BME280;53575;51.366;12.350;2022-10-16T02:48:43;100034.84;;;14.15;100.00
66681;BME280;53575;51.366;12.350;2022-10-16T02:51:09;100025.09;;;14.20;100.00
66681;BME280;53575;51.366;12.350;2022-10-16T02:53:34;100022.50;;;14.19;100.00
66681;BME280;53575;51.366;12.350;2022-10-16T02:55:59;100026.00;;;14.19;100.00
66681;BME280;53575;51.366;12.350;2022-10-16T02:58:25;100027.69;;;14.22;100.00
66681;BME280;53575;51.366;12.350;2022-10-16T03:00:50;100017.97;;;14.25;100.00
66681;BME280;53575;51.366;12.350;2022-10-16T03:03:16;100024.00;;;14.29;100.00
66681;BME280;53575;51.366;12.350;2022-10-16T03:05:43;100025.66;;;14.33;100.00
66681;BME280;53575;51.366;12.350;2022-10-16T03:08:08;100034.25;;;14.38;100.00
66681;BME280;53575;51.366;12.350;2022-10-16T03:10:33;100037.00;;;14.33;100.00
66681;BME280;53575;51.366;12.350;2022-10-16T03:12:59;100034.50;;;14.29;100.00
66681;BME280;53575;51.366;12.350;2022-10-16T03:15:24;100038.19;;;14.22;100.00
66681;BME280;53575;51.366;12.350;2022-10-16T03:17:51;100043.44;;;14.23;100.00
66681;BME280;53575;51.366;12.350;2022-10-16T03:20:16;100038.25;;;14.20;100.00
66681;BME280;53575;51.366;12.350;2022-10-16T03:22:41;100029.44;;;14.21;100.00
66681;BME280;53575;51.366;12.350;2022-10-16T03:25:07;100036.44;;;14.22;100.00
66681;BME280;53575;51.366;12.350;2022-10-16T03:27:32;100039.06;;;14.22;100.00
66681;BME280;53575;51.366;12.350;2022-10-16T03:29:58;100049.63;;;14.21;100.00
66681;BME280;53575;51.366;12.350;2022-10-16T03:32:23;100060.19;;;14.18;100.00
66681;BME280;53575;51.366;12.350;2022-10-16T03:34:50;100065.38;;;14.21;100.00
66681;BME280;53575;51.366;12.350;2022-10-16T03:37:15;100066.09;;;14.27;100.00
66681;BME280;53575;51.366;12.350;2022-10-16T03:39:41;100064.41;;;14.25;100.00
66681;BME280;53575;51.366;12.350;2022-10-16T03:42:06;100074.19;;;14.18;100.00
66681;BME280;53575;51.366;12.350;2022-10-16T03:44:32;100062.00;;;14.15;100.00
66681;BME280;53575;51.366;12.350;2022-10-16T03:46:57;100054.03;;;14.19;100.00
66681;BME280;53575;51.366;12.350;2022-10-16T03:49:22;100049.75;;;14.16;100.00
66681;BME280;53575;51.366;12.350;2022-10-16T03:51:48;100030.38;;;14.19;100.00
66681;BME280;53575;51.366;12.350;2022-10-16T03:54:13;100033.06;;;14.17;100.00
66681;BME280;53575;51.366;12.350;2022-10-16T03:56:38;100048.00;;;14.15;100.00
66681;BME280;53575;51.366;12.350;2022-10-16T03:59:04;100030.63;;;14.09;100.00
66681;BME280;53575;51.366;12.350;2022-10-16T04:01:29;100030.88;;;13.99;100.00
66681;BME280;53575;51.366;12.350;2022-10-16T04:03:55;100046.78;;;13.93;100.00
66681;BME280;53575;51.366;12.350;2022-10-16T04:06:20;100039.88;;;13.88;100.00
66681;BME280;53575;51.366;12.350;2022-10-16T04:08:45;100046.72;;;13.96;100.00
66681;BME280;53575;51.366;12.350;2022-10-16T04:11:11;100044.94;;;13.98;100.00
66681;BME280;53575;51.366;12.350;2022-10-16T04:13:36;100046.94;;;13.86;100.00
66681;BME280;53575;51.366;12.350;2022-10-16T04:16:02;100049.53;;;13.88;100.00
66681;BME280;53575;51.366;12.350;2022-10-16T04:18:27;100036.41;;;13.88;100.00
66681;BME280;53575;51.366;12.350;2022-10-16T04:20:54;100038.16;;;13.89;100.00
66681;BME280;53575;51.366;12.350;2022-10-16T04:23:19;100048.78;;;13.83;100.00
66681;BME280;53575;51.366;12.350;2022-10-16T04:25:45;100064.47;;;13.86;100.00
66681;BME280;53575;51.366;12.350;2022-10-16T04:28:10;100056.56;;;13.87;100.00
66681;BME280;53575;51.366;12.350;2022-10-16T04:30:38;100066.81;;;13.98;100.00
66681;BME280;53575;51.366;12.350;2022-10-16T04:33:04;100071.94;;;14.04;100.00
66681;BME280;53575;51.366;12.350;2022-10-16T04:35:29;100076.03;;;14.14;100.00
66681;BME280;53575;51.366;12.350;2022-10-16T04:37:57;100073.22;;;14.22;100.00
66681;BME280;53575;51.366;12.350;2022-10-16T04:40:23;100082.63;;;14.32;100.00
66681;BME280;53575;51.366;12.350;2022-10-16T04:42:48;100083.66;;;14.25;100.00
66681;BME280;53575;51.366;12.350;2022-10-16T04:45:13;100088.47;;;14.42;100.00
66681;BME280;53575;51.366;12.350;2022-10-16T04:47:39;100088.72;;;14.33;100.00
66681;BME280;53575;51.366;12.350;2022-10-16T04:50:04;100092.28;;;14.32;100.00
66681;BME280;53575;51.366;12.350;2022-10-16T04:52:30;100086.94;;;14.35;100.00
66681;BME280;53575;51.366;12.350;2022-10-16T04:54:57;100094.81;;;14.35;100.00
66681;BME280;53575;51.366;12.350;2022-10-16T04:57:25;100096.56;;;14.34;100.00
66681;BME280;53575;51.366;12.350;2022-10-16T04:59:52;100097.66;;;14.27;100.00
66681;BME280;53575;51.366;12.350;2022-10-16T05:02:17;100107.19;;;14.31;100.00
66681;BME280;53575;51.366;12.350;2022-10-16T05:04:42;100117.75;;;14.28;100.00
66681;BME280;53575;51.366;12.350;2022-10-16T05:07:08;100124.59;;;14.35;100.00
66681;BME280;53575;51.366;12.350;2022-10-16T05:09:33;100116.66;;;14.37;100.00
66681;BME280;53575;51.366;12.350;2022-10-16T05:11:59;100123.81;;;14.32;100.00
66681;BME280;53575;51.366;12.350;2022-10-16T05:14:24;100119.28;;;14.37;100.00
66681;BME280;53575;51.366;12.350;2022-10-16T05:16:49;100111.47;;;14.34;100.00
66681;BME280;53575;51.366;12.350;2022-10-16T05:19:15;100117.69;;;14.31;100.00
66681;BME280;53575;51.366;12.350;2022-10-16T05:21:41;100112.50;;;14.28;100.00
66681;BME280;53575;51.366;12.350;2022-10-16T05:24:06;100116.84;;;14.29;100.00
66681;BME280;53575;51.366;12.350;2022-10-16T05:26:32;100119.53;;;14.28;100.00
66681;BME280;53575;51.366;12.350;2022-10-16T05:28:57;100127.34;;;14.31;100.00
66681;BME280;53575;51.366;12.350;2022-10-16T05:31:22;100124.00;;;14.23;100.00
66681;BME280;53575;51.366;12.350;2022-10-16T05:33:48;100130.97;;;14.25;100.00
66681;BME280;53575;51.366;12.350;2022-10-16T05:36:13;100130.00;;;14.29;100.00
66681;BME280;53575;51.366;12.350;2022-10-16T05:38:39;100129.09;;;14.30;100.00
66681;BME280;53575;51.366;12.350;2022-10-16T05:41:05;100123.03;;;14.28;100.00
66681;BME280;53575;51.366;12.350;2022-10-16T05:43:31;100124.75;;;14.29;100.00
66681;BME280;53575;51.366;12.350;2022-10-16T05:46:04;100130.84;;;14.30;100.00
66681;BME280;53575;51.366;12.350;2022-10-16T05:48:31;100128.81;;;14.41;100.00
66681;BME280;53575;51.366;12.350;2022-10-16T05:51:05;100132.31;;;14.42;100.00
66681;BME280;53575;51.366;12.350;2022-10-16T05:53:33;100140.13;;;14.45;100.00
66681;BME280;53575;51.366;12.350;2022-10-16T05:55:58;100143.59;;;14.47;100.00
66681;BME280;53575;51.366;12.350;2022-10-16T05:58:25;100152.34;;;14.47;100.00
66681;BME280;53575;51.366;12.350;2022-10-16T06:00:57;100152.13;;;14.56;100.00
66681;BME280;53575;51.366;12.350;2022-10-16T06:03:23;100153.84;;;14.59;100.00
66681;BME280;53575;51.366;12.350;2022-10-16T06:05:49;100153.66;;;14.65;100.00
66681;BME280;53575;51.366;12.350;2022-10-16T06:08:15;100154.16;;;14.81;100.00
66681;BME280;53575;51.366;12.350;2022-10-16T06:10:40;100160.97;;;14.88;100.00
66681;BME280;53575;51.366;12.350;2022-10-16T06:13:05;100156.47;;;14.93;100.00
66681;BME280;53575;51.366;12.350;2022-10-16T06:15:31;100167.06;;;14.90;100.00
66681;BME280;53575;51.366;12.350;2022-10-16T06:17:56;100157.38;;;14.92;100.00
66681;BME280;53575;51.366;12.350;2022-10-16T06:20:21;100160.00;;;14.92;100.00
66681;BME280;53575;51.366;12.350;2022-10-16T06:22:47;100153.84;;;14.93;100.00
66681;BME280;53575;51.366;12.350;2022-10-16T06:25:12;100171.19;;;15.00;100.00
66681;BME280;53575;51.366;12.350;2022-10-16T06:27:39;100167.78;;;14.97;100.00
66681;BME280;53575;51.366;12.350;2022-10-16T06:30:06;100166.72;;;15.04;100.00
66681;BME280;53575;51.366;12.350;2022-10-16T06:32:31;100164.94;;;15.04;100.00
66681;BME280;53575;51.366;12.350;2022-10-16T06:34:57;100175.19;;;15.15;100.00
66681;BME280;53575;51.366;12.350;2022-10-16T06:37:22;100177.75;;;15.17;100.00
66681;BME280;53575;51.366;12.350;2022-10-16T06:39:48;100181.47;;;15.09;100.00
66681;BME280;53575;51.366;12.350;2022-10-16T06:42:13;100186.56;;;15.16;100.00
66681;BME280;53575;51.366;12.350;2022-10-16T06:44:38;100198.31;;;15.35;100.00
66681;BME280;53575;51.366;12.350;2022-10-16T06:47:04;100190.50;;;15.32;100.00
66681;BME280;53575;51.366;12.350;2022-10-16T06:49:29;100196.06;;;15.21;100.00
66681;BME280;53575;51.366;12.350;2022-10-16T06:51:54;100198.56;;;15.26;100.00
66681;BME280;53575;51.366;12.350;2022-10-16T06:54:20;100197.75;;;15.24;100.00
66681;BME280;53575;51.366;12.350;2022-10-16T06:56:45;100195.84;;;15.29;100.00
66681;BME280;53575;51.366;12.350;2022-10-16T06:59:11;100195.84;;;15.29;100.00
66681;BME280;53575;51.366;12.350;2022-10-16T07:01:36;100201.75;;;15.37;100.00
66681;BME280;53575;51.366;12.350;2022-10-16T07:04:02;100193.22;;;15.29;100.00
66681;BME280;53575;51.366;12.350;2022-10-16T07:06:31;100197.50;;;15.33;100.00
66681;BME280;53575;51.366;12.350;2022-10-16T07:08:57;100187.72;;;15.38;100.00
66681;BME280;53575;51.366;12.350;2022-10-16T07:11:23;100188.38;;;15.45;100.00
66681;BME280;53575;51.366;12.350;2022-10-16T07:13:49;100178.72;;;15.45;100.00
66681;BME280;53575;51.366;12.350;2022-10-16T07:16:18;100148.50;;;15.58;100.00
66681;BME280;53575;51.366;12.350;2022-10-16T07:18:44;100142.41;;;15.56;100.00
66681;BME280;53575;51.366;12.350;2022-10-16T07:21:12;100170.47;;;15.57;100.00
66681;BME280;53575;51.366;12.350;2022-10-16T07:23:38;100177.13;;;15.71;100.00
66681;BME280;53575;51.366;12.350;2022-10-16T07:26:05;100197.81;;;15.84;100.00
66681;BME280;53575;51.366;12.350;2022-10-16T07:28:32;100210.44;;;16.03;100.00
66681;BME280;53575;51.366;12.350;2022-10-16T07:31:05;100220.88;;;16.06;100.00
66681;BME280;53575;51.366;12.350;2022-10-16T07:33:31;100220.28;;;16.26;100.00
66681;BME280;53575;51.366;12.350;2022-10-16T07:35:57;100228.13;;;15.99;100.00
66681;BME280;53575;51.366;12.350;2022-10-16T07:38:22;100226.16;;;16.06;100.00
66681;BME280;53575;51.366;12.350;2022-10-16T07:40:55;100227.78;;;16.10;100.00
66681;BME280;53575;51.366;12.350;2022-10-16T07:43:20;100224.19;;;16.13;100.00
66681;BME280;53575;51.366;12.350;2022-10-16T07:45:47;100226.59;;;16.20;100.00
66681;BME280;53575;51.366;12.350;2022-10-16T07:48:13;100231.72;;;16.25;100.00
66681;BME280;53575;51.366;12.350;2022-10-16T07:50:39;100239.91;;;16.45;100.00
66681;BME280;53575;51.366;12.350;2022-10-16T07:53:04;100249.28;;;16.54;99.63
66681;BME280;53575;51.366;12.350;2022-10-16T07:55:29;100241.81;;;16.68;98.59
66681;BME280;53575;51.366;12.350;2022-10-16T07:57:55;100249.81;;;16.65;99.36
66681;BME280;53575;51.366;12.350;2022-10-16T08:00:20;100249.00;;;16.91;97.64
66681;BME280;53575;51.366;12.350;2022-10-16T08:02:45;100256.41;;;17.07;96.75
66681;BME280;53575;51.366;12.350;2022-10-16T08:05:11;100258.56;;;17.20;96.00
66681;BME280;53575;51.366;12.350;2022-10-16T08:07:36;100262.41;;;17.37;94.71
66681;BME280;53575;51.366;12.350;2022-10-16T08:10:02;100257.66;;;17.46;94.26
66681;BME280;53575;51.366;12.350;2022-10-16T08:12:27;100258.03;;;17.61;92.84
66681;BME280;53575;51.366;12.350;2022-10-16T08:14:53;100263.72;;;17.75;92.17
66681;BME280;53575;51.366;12.350;2022-10-16T08:17:18;100272.75;;;17.93;90.94
66681;BME280;53575;51.366;12.350;2022-10-16T08:19:45;100273.34;;;18.01;89.74
66681;BME280;53575;51.366;12.350;2022-10-16T08:22:11;100267.28;;;18.21;89.67
66681;BME280;53575;51.366;12.350;2022-10-16T08:24:36;100277.09;;;18.41;88.04
66681;BME280;53575;51.366;12.350;2022-10-16T08:27:02;100282.09;;;18.48;87.96
66681;BME280;53575;51.366;12.350;2022-10-16T08:29:28;100282.84;;;18.52;85.99
66681;BME280;53575;51.366;12.350;2022-10-16T08:31:54;100285.09;;;18.39;85.93
66681;BME280;53575;51.366;12.350;2022-10-16T08:34:19;100273.53;;;18.42;86.05
66681;BME280;53575;51.366;12.350;2022-10-16T08:36:44;100272.28;;;18.50;85.81
66681;BME280;53575;51.366;12.350;2022-10-16T08:39:10;100286.59;;;18.68;84.98
66681;BME280;53575;51.366;12.350;2022-10-16T08:44:25;100302.19;;;18.76;84.65
66681;BME280;53575;51.366;12.350;2022-10-16T08:47:05;100304.31;;;18.90;83.45
66681;BME280;53575;51.366;12.350;2022-10-16T08:49:35;100308.28;;;19.00;82.61
66681;BME280;53575;51.366;12.350;2022-10-16T08:52:02;100304.22;;;18.91;82.94
66681;BME280;53575;51.366;12.350;2022-10-16T08:54:45;100310.38;;;18.92;82.72
66681;BME280;53575;51.366;12.350;2022-10-16T08:57:17;100320.00;;;18.94;82.59
66681;BME280;53575;51.366;12.350;2022-10-16T08:59:44;100310.59;;;19.08;81.10
66681;BME280;53575;51.366;12.350;2022-10-16T09:02:40;100328.91;;;19.14;80.19
66681;BME280;53575;51.366;12.350;2022-10-16T09:10:57;100339.44;;;19.58;79.03
66681;BME280;53575;51.366;12.350;2022-10-16T09:13:52;100333.84;;;19.65;78.12
66681;BME280;53575;51.366;12.350;2022-10-16T09:16:24;100334.38;;;19.52;78.46
66681;BME280;53575;51.366;12.350;2022-10-16T09:21:33;100336.78;;;19.58;77.96
66681;BME280;53575;51.366;12.350;2022-10-16T09:24:27;100333.91;;;19.42;78.34
66681;BME280;53575;51.366;12.350;2022-10-16T09:26:52;100341.72;;;19.24;78.32
66681;BME280;53575;51.366;12.350;2022-10-16T09:29:20;100343.72;;;19.19;78.28
66681;BME280;53575;51.366;12.350;2022-10-16T09:31:47;100356.53;;;19.08;78.87
66681;BME280;53575;51.366;12.350;2022-10-16T09:34:27;100350.84;;;19.17;78.76
66681;BME280;53575;51.366;12.350;2022-10-16T09:36:55;100357.19;;;19.13;78.73
66681;BME280;53575;51.366;12.350;2022-10-16T09:39:22;100356.53;;;19.08;78.76
66681;BME280;53575;51.366;12.350;2022-10-16T09:41:47;100351.91;;;19.13;79.09
66681;BME280;53575;51.366;12.350;2022-10-16T09:44:26;100346.16;;;19.24;78.89
66681;BME280;53575;51.366;12.350;2022-10-16T09:47:12;100371.94;;;19.41;78.74
66681;BME280;53575;51.366;12.350;2022-10-16T09:49:38;100365.88;;;19.39;77.98
66681;BME280;53575;51.366;12.350;2022-10-16T09:52:14;100346.78;;;19.51;78.15
66681;BME280;53575;51.366;12.350;2022-10-16T09:54:54;100362.75;;;19.49;78.36
66681;BME280;53575;51.366;12.350;2022-10-16T09:57:21;100355.25;;;19.81;77.26
66681;BME280;53575;51.366;12.350;2022-10-16T10:02:30;100365.91;;;19.80;76.61
66681;BME280;53575;51.366;12.350;2022-10-16T10:04:56;100362.81;;;19.70;76.68
66681;BME280;53575;51.366;12.350;2022-10-16T10:07:32;100362.81;;;19.70;76.86
66681;BME280;53575;51.366;12.350;2022-10-16T10:10:00;100359.34;;;19.68;77.24
66681;BME280;53575;51.366;12.350;2022-10-16T10:12:33;100376.34;;;19.84;77.30
66681;BME280;53575;51.366;12.350;2022-10-16T10:17:30;100365.78;;;20.22;75.01
66681;BME280;53575;51.366;12.350;2022-10-16T10:19:58;100380.97;;;20.39;74.36
66681;BME280;53575;51.366;12.350;2022-10-16T10:22:29;100393.47;;;20.16;75.08
66681;BME280;53575;51.366;12.350;2022-10-16T10:24:57;100392.03;;;20.09;75.56
66681;BME280;53575;51.366;12.350;2022-10-16T10:27:52;100391.69;;;20.17;74.98
66681;BME280;53575;51.366;12.350;2022-10-16T10:30:25;100397.13;;;20.14;75.36
66681;BME280;53575;51.366;12.350;2022-10-16T10:44:10;100382.75;;;19.79;77.16
66681;BME280;53575;51.366;12.350;2022-10-16T10:46:47;100398.41;;;19.85;76.56
66681;BME280;53575;51.366;12.350;2022-10-16T11:01:09;100407.22;;;19.85;76.37
66681;BME280;53575;51.366;12.350;2022-10-16T11:04:12;100401.72;;;19.90;76.74
66681;BME280;53575;51.366;12.350;2022-10-16T11:06:53;100392.03;;;19.89;76.32
66681;BME280;53575;51.366;12.350;2022-10-16T11:09:28;100392.09;;;19.87;76.36
66681;BME280;53575;51.366;12.350;2022-10-16T11:12:34;100397.88;;;19.97;76.34
66681;BME280;53575;51.366;12.350;2022-10-16T11:15:28;100403.31;;;19.94;76.56
66681;BME280;53575;51.366;12.350;2022-10-16T11:18:06;100401.38;;;19.98;77.00
66681;BME280;53575;51.366;12.350;2022-10-16T11:20:39;100398.59;;;20.01;76.54
66681;BME280;53575;51.366;12.350;2022-10-16T11:23:16;100399.13;;;20.09;76.35
66681;BME280;53575;51.366;12.350;2022-10-16T11:25:45;100404.94;;;20.17;76.12
66681;BME280;53575;51.366;12.350;2022-10-16T11:28:18;100402.81;;;20.25;76.11
66681;BME280;53575;51.366;12.350;2022-10-16T11:30:50;100403.19;;;20.36;75.62
66681;BME280;53575;51.366;12.350;2022-10-16T11:44:16;100404.50;;;20.47;74.97
66681;BME280;53575;51.366;12.350;2022-10-16T11:46:54;100418.13;;;20.39;75.21
66681;BME280;53575;51.366;12.350;2022-10-16T11:49:25;100418.97;;;20.39;74.96
66681;BME280;53575;51.366;12.350;2022-10-16T11:51:56;100411.16;;;20.36;75.26
66681;BME280;53575;51.366;12.350;2022-10-16T11:54:38;100416.31;;;20.39;75.01
66681;BME280;53575;51.366;12.350;2022-10-16T11:57:16;100422.50;;;20.40;75.40
66681;BME280;53575;51.366;12.350;2022-10-16T11:59:50;100413.47;;;20.44;74.04
66681;BME280;53575;51.366;12.350;2022-10-16T12:05:25;100423.56;;;20.36;75.47
66681;BME280;53575;51.366;12.350;2022-10-16T12:10:29;100426.31;;;20.34;75.65
66681;BME280;53575;51.366;12.350;2022-10-16T12:12:56;100429.22;;;20.28;75.90
66681;BME280;53575;51.366;12.350;2022-10-16T12:15:27;100428.63;;;20.21;76.53
66681;BME280;53575;51.366;12.350;2022-10-16T12:17:53;100423.78;;;20.11;77.14
66681;BME280;53575;51.366;12.350;2022-10-16T12:23:00;100428.63;;;20.01;77.74
66681;BME280;53575;51.366;12.350;2022-10-16T12:25:39;100435.22;;;19.92;78.37
66681;BME280;53575;51.366;12.350;2022-10-16T12:28:20;100437.91;;;19.91;78.25
66681;BME280;53575;51.366;12.350;2022-10-16T12:30:58;100433.22;;;19.77;79.23
66681;BME280;53575;51.366;12.350;2022-10-16T12:33:29;100443.19;;;19.70;79.46
66681;BME280;53575;51.366;12.350;2022-10-16T12:35:56;100444.31;;;19.65;79.44
66681;BME280;53575;51.366;12.350;2022-10-16T12:38:37;100445.31;;;19.62;78.90
66681;BME280;53575;51.366;12.350;2022-10-16T12:41:07;100439.81;;;19.67;78.83
66681;BME280;53575;51.366;12.350;2022-10-16T12:43:45;100445.94;;;19.69;79.09
66681;BME280;53575;51.366;12.350;2022-10-16T12:48:38;100447.66;;;19.70;78.43
66681;BME280;53575;51.366;12.350;2022-10-16T12:51:33;100452.41;;;19.60;78.88
66681;BME280;53575;51.366;12.350;2022-10-16T12:54:04;100455.34;;;19.54;78.41
66681;BME280;53575;51.366;12.350;2022-10-16T13:02:13;100458.56;;;19.62;78.61
66681;BME280;53575;51.366;12.350;2022-10-16T13:11:48;100451.63;;;20.41;75.87
66681;BME280;53575;51.366;12.350;2022-10-16T13:17:20;100442.09;;;20.77;73.60
66681;BME280;53575;51.366;12.350;2022-10-16T13:22:29;100446.56;;;21.14;72.01
66681;BME280;53575;51.366;12.350;2022-10-16T13:30:16;100453.50;;;21.35;70.61
66681;BME280;53575;51.366;12.350;2022-10-16T13:32:48;100467.59;;;21.37;70.58
66681;BME280;53575;51.366;12.350;2022-10-16T13:35:31;100460.47;;;21.00;71.26
66681;BME280;53575;51.366;12.350;2022-10-16T13:38:04;100462.28;;;21.00;71.56
66681;BME280;53575;51.366;12.350;2022-10-16T13:40:30;100460.47;;;21.19;70.83
66681;BME280;53575;51.366;12.350;2022-10-16T13:42:55;100460.31;;;21.22;70.78
66681;BME280;53575;51.366;12.350;2022-10-16T13:45:25;100464.50;;;21.09;71.36
66681;BME280;53575;51.366;12.350;2022-10-16T13:48:04;100462.56;;;20.93;72.20
66681;BME280;53575;51.366;12.350;2022-10-16T13:50:30;100473.53;;;20.86;72.61
66681;BME280;53575;51.366;12.350;2022-10-16T13:53:06;100479.75;;;20.66;73.30
66681;BME280;53575;51.366;12.350;2022-10-16T13:55:32;100478.78;;;20.68;73.68
66681;BME280;53575;51.366;12.350;2022-10-16T13:58:07;100484.19;;;20.45;74.50
66681;BME280;53575;51.366;12.350;2022-10-16T14:00:32;100485.13;;;20.44;74.84
66681;BME280;53575;51.366;12.350;2022-10-16T14:03:02;100486.69;;;20.50;75.23
66681;BME280;53575;51.366;12.350;2022-10-16T14:05:28;100492.31;;;20.62;74.59
66681;BME280;53575;51.366;12.350;2022-10-16T14:07:54;100489.00;;;20.57;74.18
66681;BME280;53575;51.366;12.350;2022-10-16T14:10:31;100502.06;;;20.41;75.21
66681;BME280;53575;51.366;12.350;2022-10-16T14:13:03;100501.25;;;20.39;75.30
66681;BME280;53575;51.366;12.350;2022-10-16T14:15:31;100500.78;;;20.30;75.82
66681;BME280;53575;51.366;12.350;2022-10-16T14:17:58;100501.72;;;20.08;76.75
66681;BME280;53575;51.366;12.350;2022-10-16T14:20:32;100502.38;;;20.13;76.25
66681;BME280;53575;51.366;12.350;2022-10-16T14:23:21;100509.00;;;20.03;76.58
66681;BME280;53575;51.366;12.350;2022-10-16T14:25:47;100497.53;;;20.03;77.17